createdAt,value
2023-01-13T00:01:15.941Z,4.35
2023-01-13T00:04:05.093Z,1.40
2023-01-13T00:06:52.655Z,2.22
2023-01-13T00:09:39.752Z,2.70
2023-01-13T00:12:29.999Z,2.50
2023-01-13T00:15:17.370Z,2.85
2023-01-13T00:18:04.526Z,2.30
2023-01-13T00:21:06.858Z,5.18
2023-01-13T00:23:55.222Z,4.32
2023-01-13T00:26:42.719Z,3.25
2023-01-13T00:29:29.912Z,2.13
2023-01-13T00:32:17.315Z,4.00
2023-01-13T00:35:04.897Z,3.05
2023-01-13T00:37:52.029Z,4.05
2023-01-13T00:40:39.150Z,4.32
2023-01-13T00:43:27.813Z,1.45
2023-01-13T00:46:17.614Z,2.95
2023-01-13T00:49:04.978Z,3.20
2023-01-13T00:51:52.193Z,5.82
2023-01-13T00:54:39.663Z,4.55
2023-01-13T00:57:26.764Z,6.18
2023-01-13T01:00:14.628Z,3.83
2023-01-13T01:03:03.112Z,2.63
2023-01-13T01:05:50.589Z,3.08
2023-01-13T01:08:37.950Z,1.85
2023-01-13T01:11:30.576Z,3.60
2023-01-13T01:14:17.707Z,2.92
2023-01-13T01:17:04.918Z,4.20
2023-01-13T01:19:52.195Z,4.32
2023-01-13T01:22:39.357Z,6.45
2023-01-13T01:25:26.534Z,4.30
2023-01-13T01:28:13.651Z,4.47
2023-01-13T01:31:02.098Z,3.55
2023-01-13T01:33:49.907Z,2.85
2023-01-13T01:36:37.239Z,5.35
2023-01-13T01:39:24.513Z,4.47
2023-01-13T01:42:35.159Z,4.22
2023-01-13T01:45:24.761Z,6.25
2023-01-13T01:48:12.525Z,4.75
2023-01-13T01:51:02.281Z,5.55
2023-01-13T01:53:53.599Z,3.08
2023-01-13T01:56:45.795Z,4.25
2023-01-13T01:59:34.274Z,1.55
2023-01-13T02:02:22.439Z,4.22
2023-01-13T02:05:10.038Z,4.78
2023-01-13T02:07:58.647Z,4.40
2023-01-13T02:10:50.582Z,1.35
2023-01-13T02:13:37.966Z,2.42
2023-01-13T02:16:25.124Z,2.95
2023-01-13T02:19:33.769Z,4.60
2023-01-13T02:22:53.020Z,2.45
2023-01-13T02:26:18.108Z,3.65
2023-01-13T02:29:51.912Z,1.98
2023-01-13T02:33:25.645Z,1.98
2023-01-13T02:36:31.862Z,5.93
2023-01-13T02:39:40.757Z,2.30
2023-01-13T02:42:55.494Z,3.10
2023-01-13T02:45:52.713Z,4.65
2023-01-13T02:48:42.498Z,3.03
2023-01-13T02:51:32.642Z,1.90
2023-01-13T02:54:29.708Z,3.00
2023-01-13T02:57:19.051Z,3.88
2023-01-13T03:00:12.277Z,3.55
2023-01-13T03:03:06.257Z,3.20
2023-01-13T03:06:21.943Z,3.95
2023-01-13T03:09:26.563Z,3.17
2023-01-13T03:12:16.508Z,5.60
2023-01-13T03:15:28.856Z,3.20
2023-01-13T03:18:25.277Z,5.75
2023-01-13T03:21:21.127Z,4.53
2023-01-13T03:24:44.988Z,4.22
2023-01-13T03:27:43.292Z,1.60
2023-01-13T03:30:41.468Z,4.68
2023-01-13T03:33:45.919Z,5.32
2023-01-13T03:36:36.181Z,3.45
2023-01-13T03:39:31.645Z,1.52
2023-01-13T03:42:24.189Z,2.42
2023-01-13T03:45:28.153Z,2.40
2023-01-13T03:48:19.198Z,4.00
2023-01-13T03:51:10.569Z,4.40
2023-01-13T03:54:02.344Z,2.58
2023-01-13T03:56:59.420Z,4.07
2023-01-13T03:59:52.339Z,4.60
2023-01-13T04:03:41.383Z,4.93
2023-01-13T04:07:01.115Z,4.22
2023-01-13T04:10:02.112Z,2.70
2023-01-13T04:13:06.933Z,6.03
2023-01-13T04:15:58.294Z,4.18
2023-01-13T04:18:45.653Z,5.13
2023-01-13T04:21:36.113Z,3.45
2023-01-13T04:24:29.327Z,3.15
2023-01-13T04:27:16.481Z,3.13
2023-01-13T04:30:05.308Z,3.40
2023-01-13T04:32:52.433Z,2.35
2023-01-13T04:35:39.784Z,3.20
2023-01-13T04:38:27.353Z,1.60
2023-01-13T04:41:14.519Z,1.75
2023-01-13T04:44:01.658Z,6.07
2023-01-13T04:46:48.964Z,2.58
2023-01-13T04:49:36.095Z,3.00
2023-01-13T04:52:23.346Z,2.13
2023-01-13T04:55:10.779Z,1.55
2023-01-13T04:58:11.534Z,2.78
2023-01-13T05:01:00.842Z,1.48
2023-01-13T05:07:04.710Z,1.85
2023-01-13T05:09:55.417Z,1.13
2023-01-13T05:13:01.345Z,1.83
2023-01-13T05:16:10.524Z,1.98
2023-01-13T05:18:58.603Z,3.05
2023-01-13T05:22:04.545Z,2.00
2023-01-13T05:25:10.071Z,2.17
2023-01-13T05:28:00.711Z,4.55
2023-01-13T05:30:51.255Z,0.90
2023-01-13T05:33:40.775Z,1.73
2023-01-13T05:36:27.832Z,1.55
2023-01-13T05:39:15.086Z,1.05
2023-01-13T05:42:38.062Z,0.77
2023-01-13T05:45:27.803Z,1.52
2023-01-13T05:48:17.051Z,3.13
2023-01-13T05:51:06.513Z,1.05
2023-01-13T05:53:53.715Z,2.03
2023-01-13T05:56:40.942Z,1.88
2023-01-13T05:59:28.086Z,1.00
2023-01-13T06:02:17.674Z,5.75
2023-01-13T06:05:05.174Z,1.60
2023-01-13T06:07:52.303Z,2.35
2023-01-13T06:10:39.625Z,3.30
2023-01-13T06:13:27.134Z,2.22
2023-01-13T06:16:22.932Z,4.15
2023-01-13T06:19:13.931Z,1.17
2023-01-13T06:22:08.719Z,0.80
2023-01-13T06:33:29.428Z,0.70
2023-01-13T06:36:27.116Z,2.05
2023-01-13T07:08:19.122Z,2.95
2023-01-13T07:14:34.644Z,0.70
2023-01-13T07:17:25.374Z,2.72
2023-01-13T07:20:14.405Z,0.70
2023-01-13T07:23:02.032Z,1.25
2023-01-13T07:25:49.370Z,0.77
2023-01-13T07:28:40.351Z,1.70
2023-01-13T07:31:30.453Z,0.68
2023-01-13T07:34:21.134Z,0.88
2023-01-13T07:37:08.643Z,0.70
2023-01-13T07:40:01.363Z,0.70
2023-01-13T07:49:27.906Z,3.78
2023-01-13T08:07:23.300Z,1.38
2023-01-13T08:10:16.710Z,1.95
2023-01-13T08:17:02.894Z,2.05
2023-01-13T09:13:53.453Z,1.93
2023-01-13T09:25:30.922Z,1.83
2023-01-13T09:28:28.888Z,2.15
2023-01-13T09:35:22.657Z,1.77
2023-01-13T10:42:29.093Z,0.57
2023-01-13T10:46:27.462Z,1.23
2023-01-13T10:49:33.789Z,0.60
2023-01-13T10:52:42.316Z,1.65
2023-01-13T11:36:29.119Z,2.03
2023-01-13T12:08:42.861Z,2.03
2023-01-13T12:12:16.024Z,3.00
2023-01-13T12:18:05.316Z,2.65
2023-01-13T12:21:14.092Z,1.67
2023-01-13T12:24:25.367Z,2.95
2023-01-13T12:27:26.003Z,4.70
2023-01-13T12:30:37.484Z,2.25
2023-01-13T12:33:43.850Z,3.72
2023-01-13T12:36:59.000Z,4.05
2023-01-13T12:39:58.775Z,3.22
2023-01-13T12:43:31.107Z,4.90
2023-01-13T12:46:24.935Z,6.05
2023-01-13T12:49:24.163Z,6.75
2023-01-13T12:52:15.133Z,8.43
2023-01-13T12:55:09.934Z,10.60
2023-01-13T12:58:13.793Z,7.47
2023-01-13T13:01:14.520Z,4.57
2023-01-13T13:04:41.805Z,4.72
2023-01-13T13:07:41.818Z,8.05
2023-01-13T13:10:34.058Z,7.10
2023-01-13T13:13:47.466Z,7.35
2023-01-13T13:16:51.295Z,6.43
2023-01-13T13:19:42.489Z,6.70
2023-01-13T13:22:45.403Z,8.52
2023-01-13T13:28:23.994Z,6.35
2023-01-13T13:31:33.747Z,6.55
2023-01-13T13:34:23.683Z,6.88
2023-01-13T13:37:26.136Z,6.43
2023-01-13T13:40:34.819Z,11.10
2023-01-13T13:43:40.654Z,6.38
2023-01-13T13:46:48.452Z,5.90
2023-01-13T13:49:42.470Z,8.15
2023-01-13T13:53:00.995Z,11.82
2023-01-13T13:56:03.419Z,7.25
2023-01-13T13:58:53.551Z,7.70
2023-01-13T14:01:45.442Z,12.00
2023-01-13T14:04:39.275Z,7.57
2023-01-13T14:07:28.282Z,6.57
2023-01-13T14:10:28.668Z,3.40
2023-01-13T14:13:23.096Z,5.28
2023-01-13T14:16:19.753Z,5.55
2023-01-13T14:19:23.639Z,6.05
2023-01-13T14:22:16.702Z,6.53
2023-01-13T14:25:41.667Z,6.10
2023-01-13T14:28:35.727Z,9.20
2023-01-13T14:31:35.239Z,8.30
2023-01-13T14:34:32.705Z,8.88
2023-01-13T14:37:42.373Z,8.90
2023-01-13T14:40:44.714Z,7.13
2023-01-13T14:43:32.229Z,3.05
2023-01-13T14:46:23.091Z,9.40
2023-01-13T14:49:31.354Z,13.38
2023-01-13T14:52:24.541Z,11.70
2023-01-13T14:55:36.134Z,6.18
2023-01-13T14:58:37.788Z,9.20
2023-01-13T15:01:36.453Z,9.30
2023-01-13T15:04:28.605Z,5.55
2023-01-13T15:07:25.978Z,9.18
2023-01-13T15:10:22.747Z,9.70
2023-01-13T15:13:35.865Z,4.93
2023-01-13T15:16:25.409Z,11.13
2023-01-13T15:19:13.799Z,5.78
2023-01-13T15:22:01.486Z,10.85
2023-01-13T15:24:49.409Z,10.50
2023-01-13T15:27:38.129Z,9.60
2023-01-13T15:30:29.452Z,9.82
2023-01-13T15:33:17.316Z,14.10
2023-01-13T15:36:26.083Z,8.98
2023-01-13T15:39:13.949Z,13.85
2023-01-13T15:42:22.943Z,14.38
2023-01-13T15:45:41.688Z,11.23
2023-01-13T15:48:32.969Z,15.48
2023-01-13T15:51:21.268Z,16.25
2023-01-13T15:54:12.099Z,10.90
2023-01-13T15:56:59.547Z,8.43
2023-01-13T15:59:46.983Z,10.32
2023-01-13T16:02:34.640Z,12.05
2023-01-13T16:05:24.078Z,7.57
2023-01-13T16:08:19.049Z,9.95
2023-01-13T16:11:16.297Z,10.82
2023-01-13T16:14:03.471Z,16.80
2023-01-13T16:16:53.203Z,26.10
2023-01-13T16:19:49.283Z,9.98
2023-01-13T16:22:36.538Z,15.90
2023-01-13T16:25:29.270Z,18.65
2023-01-13T16:31:35.215Z,11.52
2023-01-13T16:34:22.607Z,10.95
2023-01-13T16:37:29.804Z,17.25
2023-01-13T16:40:26.717Z,12.82
2023-01-13T16:43:17.901Z,16.42
2023-01-13T16:46:47.810Z,20.65
2023-01-13T16:49:35.254Z,17.27
2023-01-13T16:52:25.484Z,16.90
2023-01-13T16:55:19.178Z,16.20
2023-01-13T16:58:17.997Z,17.65
2023-01-13T17:01:47.123Z,16.77
2023-01-13T17:04:42.267Z,17.38
2023-01-13T17:07:29.973Z,40.15
2023-01-13T17:10:20.898Z,20.85
2023-01-13T17:13:16.793Z,15.10
2023-01-13T17:16:06.013Z,16.38
2023-01-13T17:18:54.558Z,9.75
2023-01-13T17:22:58.032Z,11.27
2023-01-13T17:25:54.965Z,11.35
2023-01-13T17:28:46.963Z,12.90
2023-01-13T17:31:39.114Z,10.80
2023-01-13T17:34:27.249Z,10.23
2023-01-13T17:37:15.286Z,12.73
2023-01-13T17:40:02.894Z,12.13
2023-01-13T17:42:51.437Z,6.75
2023-01-13T17:45:41.829Z,17.00
2023-01-13T17:48:29.462Z,9.80
2023-01-13T17:51:18.057Z,10.35
2023-01-13T17:54:06.978Z,8.77
2023-01-13T17:56:56.630Z,12.80
2023-01-13T17:59:47.643Z,7.32
2023-01-13T18:02:37.920Z,3.80
2023-01-13T18:05:25.798Z,4.88
2023-01-13T18:08:15.774Z,7.05
2023-01-13T18:11:06.967Z,4.30
2023-01-13T18:14:02.006Z,3.33
2023-01-13T18:26:02.873Z,1.80
2023-01-13T18:28:50.280Z,2.95
2023-01-13T18:31:38.031Z,4.45
2023-01-13T18:34:26.856Z,5.82
2023-01-13T18:37:17.423Z,3.67
2023-01-13T18:40:07.011Z,5.93
2023-01-13T18:42:59.470Z,6.35
2023-01-13T18:48:56.500Z,6.03
2023-01-13T18:51:49.591Z,5.57
2023-01-13T18:54:37.554Z,4.85
2023-01-13T18:57:25.882Z,7.45
2023-01-13T19:00:17.768Z,7.40
2023-01-13T19:05:53.220Z,8.35
2023-01-13T19:08:40.942Z,8.20
2023-01-13T19:11:30.637Z,4.60
2023-01-13T19:14:34.939Z,6.90
2023-01-13T19:17:24.171Z,5.65
2023-01-13T19:20:13.011Z,7.47
2023-01-13T19:23:04.018Z,8.00
2023-01-13T19:25:51.809Z,9.02
2023-01-13T19:28:41.090Z,7.50
2023-01-13T19:31:32.578Z,8.07
2023-01-13T19:34:20.524Z,8.95
2023-01-13T19:37:08.257Z,8.18
2023-01-13T19:39:57.159Z,4.25
2023-01-13T19:43:06.591Z,6.18
2023-01-13T19:45:54.470Z,3.67
2023-01-13T19:48:44.630Z,5.38
2023-01-13T19:51:35.376Z,6.95
2023-01-13T19:54:27.517Z,6.88
2023-01-13T19:57:15.892Z,6.50
2023-01-13T20:00:05.648Z,7.18
2023-01-13T20:02:56.552Z,6.15
2023-01-13T20:05:44.040Z,6.53
2023-01-13T20:08:35.887Z,7.43
2023-01-13T20:11:31.913Z,7.30
2023-01-13T20:14:20.798Z,13.98
2023-01-13T20:17:08.947Z,12.32
2023-01-13T20:20:01.545Z,11.32
2023-01-13T20:25:37.953Z,7.78
2023-01-13T20:28:37.468Z,9.00
2023-01-13T20:31:24.955Z,9.10
2023-01-13T20:34:12.404Z,7.05
2023-01-13T20:37:02.301Z,9.50
2023-01-13T20:39:49.851Z,9.88
2023-01-13T20:45:46.079Z,5.13
2023-01-13T20:48:36.492Z,9.68
2023-01-13T20:51:27.850Z,12.93
2023-01-13T20:54:15.561Z,10.15
2023-01-13T20:57:07.351Z,11.90
2023-01-13T20:59:58.206Z,8.65
2023-01-13T21:02:45.814Z,6.70
2023-01-13T21:05:44.741Z,9.63
2023-01-13T21:08:32.497Z,7.70
2023-01-13T21:11:42.131Z,7.38
2023-01-13T21:14:48.567Z,7.22
2023-01-13T21:21:14.309Z,15.30
2023-01-13T21:24:06.758Z,8.90
2023-01-13T21:27:02.229Z,6.90
2023-01-13T21:29:52.478Z,10.55
2023-01-13T21:32:55.331Z,8.73
2023-01-13T21:35:49.769Z,12.45
2023-01-13T21:38:50.297Z,7.00
2023-01-13T21:41:56.534Z,9.07
2023-01-13T21:45:02.957Z,8.77
2023-01-13T21:47:50.417Z,8.57
2023-01-13T21:50:38.927Z,9.75
2023-01-13T21:53:33.251Z,18.23
2023-01-13T21:56:23.582Z,9.40
2023-01-13T21:59:11.187Z,10.98
2023-01-13T22:02:27.778Z,7.82
2023-01-13T22:05:22.034Z,14.15
2023-01-13T22:08:12.227Z,10.98
2023-01-13T22:11:06.407Z,11.63
2023-01-13T22:14:07.074Z,10.32
2023-01-13T22:17:03.213Z,9.32
2023-01-13T22:19:59.143Z,9.85
2023-01-13T22:26:56.736Z,13.48
2023-01-13T22:29:45.599Z,12.70
2023-01-13T22:32:37.041Z,9.48
2023-01-13T22:35:35.443Z,16.60
2023-01-13T22:38:24.264Z,13.23
2023-01-13T22:41:12.032Z,12.07
2023-01-13T22:44:00.514Z,13.75
2023-01-13T22:46:49.256Z,9.27
2023-01-13T22:49:36.911Z,15.00
2023-01-13T22:52:24.202Z,17.08
2023-01-13T22:55:11.577Z,11.95
2023-01-13T22:57:58.985Z,10.07
2023-01-13T23:00:46.958Z,15.93
2023-01-13T23:03:39.678Z,11.80
2023-01-13T23:06:29.712Z,12.73
2023-01-13T23:09:16.790Z,15.95
2023-01-13T23:12:11.585Z,16.90
2023-01-13T23:14:59.112Z,13.75
2023-01-13T23:18:00.460Z,10.68
2023-01-13T23:20:47.991Z,14.65
2023-01-13T23:23:36.023Z,15.82
2023-01-13T23:26:25.936Z,20.50
2023-01-13T23:29:13.772Z,10.75
2023-01-13T23:32:01.755Z,15.55
2023-01-13T23:48:14.738Z,15.00
2023-01-13T23:51:11.177Z,19.85
2023-01-13T23:54:04.479Z,11.70
2023-01-13T23:56:55.770Z,11.25
2023-01-13T23:59:43.203Z,10.32
